createdAt,value
2023-03-05T00:01:37.148Z,99602.66
2023-03-05T00:04:06.609Z,99607.81
2023-03-05T00:06:38.231Z,99614.25
2023-03-05T00:09:06.766Z,99613.94
2023-03-05T00:11:40.279Z,99613.81
2023-03-05T00:14:08.801Z,99613.19
2023-03-05T00:16:37.761Z,99610.88
2023-03-05T00:19:06.714Z,99613.63
2023-03-05T00:21:37.322Z,99603.94
2023-03-05T00:24:08.091Z,99627.63
2023-03-05T00:26:38.087Z,99620.25
2023-03-05T00:29:07.463Z,99611.72
2023-03-05T00:31:41.784Z,99644.00
2023-03-05T00:34:12.811Z,99616.78
2023-03-05T00:36:42.790Z,99632.72
2023-03-05T00:39:12.305Z,99648.09
2023-03-05T00:41:41.301Z,99630.25
2023-03-05T00:44:10.334Z,99637.66
2023-03-05T00:46:39.257Z,99636.41
2023-03-05T00:49:09.284Z,99646.00
2023-03-05T00:51:40.710Z,99649.28
2023-03-05T00:54:09.326Z,99637.16
2023-03-05T00:56:47.305Z,99629.59
2023-03-05T00:59:27.472Z,99651.19
2023-03-05T01:01:56.378Z,99641.72
2023-03-05T01:04:27.872Z,99632.63
2023-03-05T01:06:56.748Z,99641.72
2023-03-05T01:09:26.872Z,99632.41
2023-03-05T01:11:56.228Z,99627.22
2023-03-05T01:14:25.746Z,99641.03
2023-03-05T01:16:54.860Z,99621.72
2023-03-05T01:19:23.614Z,99628.00
2023-03-05T01:21:52.436Z,99626.13
2023-03-05T01:24:21.360Z,99634.94
2023-03-05T01:26:50.153Z,99646.56
2023-03-05T01:29:19.082Z,99633.03
2023-03-05T01:31:47.938Z,99631.34
2023-03-05T01:34:16.663Z,99635.94
2023-03-05T01:36:50.574Z,99629.91
2023-03-05T01:39:19.463Z,99624.84
2023-03-05T01:41:47.903Z,99653.44
2023-03-05T01:44:25.543Z,99651.53
2023-03-05T01:46:54.380Z,99653.25
2023-03-05T01:49:26.728Z,99651.38
2023-03-05T01:52:11.217Z,99659.94
2023-03-05T01:54:51.745Z,99657.13
2023-03-05T01:57:35.938Z,99660.38
2023-03-05T02:00:17.656Z,99631.84
2023-03-05T02:02:48.647Z,99640.09
2023-03-05T02:05:27.668Z,99642.47
2023-03-05T02:08:07.989Z,99652.69
2023-03-05T02:10:43.311Z,99658.56
2023-03-05T02:13:15.194Z,99648.06
2023-03-05T02:15:45.229Z,99661.41
2023-03-05T02:18:17.091Z,99662.41
2023-03-05T02:20:56.990Z,99668.44
2023-03-05T02:23:29.090Z,99665.78
2023-03-05T02:25:57.732Z,99656.41
2023-03-05T02:28:35.779Z,99657.50
2023-03-05T02:31:13.740Z,99653.81
2023-03-05T02:33:43.292Z,99662.19
2023-03-05T02:36:12.981Z,99652.63
2023-03-05T02:38:41.473Z,99653.13
2023-03-05T02:41:10.377Z,99653.34
2023-03-05T02:43:38.927Z,99640.22
2023-03-05T02:46:08.351Z,99651.47
2023-03-05T02:48:36.603Z,99645.38
2023-03-05T02:51:05.268Z,99646.69
2023-03-05T02:53:33.705Z,99662.56
2023-03-05T02:56:02.021Z,99672.16
2023-03-05T02:58:34.308Z,99669.03
2023-03-05T03:01:02.757Z,99652.34
2023-03-05T03:03:31.766Z,99649.47
2023-03-05T03:06:01.219Z,99674.22
2023-03-05T03:08:29.454Z,99668.88
2023-03-05T03:11:09.946Z,99663.69
2023-03-05T03:13:39.289Z,99665.81
2023-03-05T03:16:10.106Z,99661.06
2023-03-05T03:18:38.356Z,99649.56
2023-03-05T03:21:06.766Z,99641.84
2023-03-05T03:23:34.974Z,99662.66
2023-03-05T03:26:02.929Z,99649.72
2023-03-05T03:28:31.232Z,99651.41
2023-03-05T03:30:59.325Z,99648.81
2023-03-05T03:33:28.156Z,99638.13
2023-03-05T03:36:00.591Z,99633.13
2023-03-05T03:38:29.802Z,99649.84
2023-03-05T03:40:58.209Z,99643.66
2023-03-05T03:43:26.757Z,99643.84
2023-03-05T03:45:54.877Z,99632.47
2023-03-05T03:48:22.844Z,99632.28
2023-03-05T03:50:50.984Z,99629.91
2023-03-05T03:53:18.931Z,99629.59
2023-03-05T03:55:49.581Z,99622.88
2023-03-05T03:58:17.642Z,99615.69
2023-03-05T04:00:45.971Z,99609.97
2023-03-05T04:03:14.057Z,99611.16
2023-03-05T04:05:42.420Z,99613.00
2023-03-05T04:08:12.589Z,99614.00
2023-03-05T04:10:40.644Z,99612.53
2023-03-05T04:13:09.232Z,99596.41
2023-03-05T04:15:37.608Z,99588.47
2023-03-05T04:18:05.580Z,99596.50
2023-03-05T04:20:34.195Z,99586.44
2023-03-05T04:23:02.199Z,99589.47
2023-03-05T04:25:30.368Z,99584.78
2023-03-05T04:27:58.947Z,99593.28
2023-03-05T04:30:27.123Z,99581.84
2023-03-05T04:32:55.380Z,99571.84
2023-03-05T04:35:23.315Z,99580.72
2023-03-05T04:37:51.746Z,99575.09
2023-03-05T04:40:21.103Z,99562.47
2023-03-05T04:42:49.676Z,99553.63
2023-03-05T04:45:17.854Z,99558.03
2023-03-05T04:47:46.377Z,99547.88
2023-03-05T04:50:14.433Z,99549.81
2023-03-05T04:52:43.059Z,99543.59
2023-03-05T04:55:12.488Z,99548.75
2023-03-05T04:57:40.839Z,99548.47
2023-03-05T05:00:17.394Z,99543.53
2023-03-05T05:02:47.068Z,99534.28
2023-03-05T05:05:16.909Z,99529.31
2023-03-05T05:07:45.531Z,99523.56
2023-03-05T05:10:13.908Z,99525.41
2023-03-05T05:12:42.604Z,99512.47
2023-03-05T05:15:12.551Z,99512.25
2023-03-05T05:17:40.652Z,99525.66
2023-03-05T05:20:11.700Z,99522.44
2023-03-05T05:22:40.215Z,99502.75
2023-03-05T05:25:08.810Z,99510.69
2023-03-05T05:27:37.426Z,99506.03
2023-03-05T05:30:06.350Z,99511.16
2023-03-05T05:32:34.463Z,99501.84
2023-03-05T05:35:02.777Z,99503.75
2023-03-05T05:37:31.329Z,99509.19
2023-03-05T05:40:00.021Z,99495.88
2023-03-05T05:42:29.946Z,99490.63
2023-03-05T05:44:58.625Z,99491.25
2023-03-05T05:47:28.115Z,99484.03
2023-03-05T05:49:56.954Z,99482.41
2023-03-05T05:52:25.522Z,99485.81
2023-03-05T05:54:53.828Z,99466.56
2023-03-05T05:57:22.651Z,99453.78
2023-03-05T05:59:51.739Z,99453.97
2023-03-05T06:02:20.088Z,99455.66
2023-03-05T06:04:52.348Z,99435.88
2023-03-05T06:07:20.557Z,99438.66
2023-03-05T06:09:49.205Z,99431.59
2023-03-05T06:12:18.018Z,99416.88
2023-03-05T06:14:46.239Z,99429.75
2023-03-05T06:17:29.835Z,99425.34
2023-03-05T06:19:58.881Z,99423.53
2023-03-05T06:22:26.745Z,99413.66
2023-03-05T06:24:54.557Z,99416.44
2023-03-05T06:27:22.606Z,99415.09
2023-03-05T06:29:53.498Z,99402.50
2023-03-05T06:32:21.646Z,99401.72
2023-03-05T06:34:50.316Z,99392.88
2023-03-05T06:37:18.350Z,99387.34
2023-03-05T06:39:45.942Z,99383.50
2023-03-05T06:42:14.305Z,99377.19
2023-03-05T06:44:42.832Z,99387.81
2023-03-05T06:47:10.925Z,99365.41
2023-03-05T06:49:39.345Z,99367.06
2023-03-05T06:52:10.042Z,99375.69
2023-03-05T06:54:37.551Z,99363.09
2023-03-05T06:57:05.076Z,99368.66
2023-03-05T06:59:33.142Z,99357.09
2023-03-05T07:02:00.694Z,99350.56
2023-03-05T07:04:28.692Z,99346.97
2023-03-05T07:06:57.138Z,99354.06
2023-03-05T07:09:25.069Z,99340.31
2023-03-05T07:11:53.103Z,99354.56
2023-03-05T07:14:21.027Z,99341.31
2023-03-05T07:16:48.443Z,99327.59
2023-03-05T07:19:16.537Z,99323.56
2023-03-05T07:21:44.340Z,99335.78
2023-03-05T07:24:11.933Z,99313.84
2023-03-05T07:26:40.044Z,99317.03
2023-03-05T07:29:07.567Z,99318.22
2023-03-05T07:31:34.973Z,99306.00
2023-03-05T07:34:03.157Z,99302.56
2023-03-05T07:36:31.128Z,99299.13
2023-03-05T07:38:58.984Z,99289.16
2023-03-05T07:41:26.932Z,99283.78
2023-03-05T07:43:54.794Z,99274.59
2023-03-05T07:46:25.214Z,99283.41
2023-03-05T07:48:54.606Z,99272.38
2023-03-05T07:51:22.987Z,99273.97
2023-03-05T07:53:51.007Z,99263.66
2023-03-05T07:56:25.504Z,99256.25
2023-03-05T07:58:53.480Z,99252.53
2023-03-05T08:01:21.610Z,99249.22
2023-03-05T08:03:49.758Z,99256.34
2023-03-05T08:06:17.202Z,99244.75
2023-03-05T08:08:45.223Z,99236.53
2023-03-05T08:11:14.414Z,99232.75
2023-03-05T08:13:43.030Z,99230.06
2023-03-05T08:16:15.499Z,99212.03
2023-03-05T08:18:43.564Z,99213.38
2023-03-05T08:21:22.709Z,99208.84
2023-03-05T08:23:50.647Z,99209.06
2023-03-05T08:26:20.731Z,99207.19
2023-03-05T08:28:48.737Z,99191.06
2023-03-05T08:31:16.965Z,99195.84
2023-03-05T08:33:44.518Z,99197.78
2023-03-05T08:36:13.211Z,99189.16
2023-03-05T08:38:41.945Z,99189.78
2023-03-05T08:41:09.634Z,99193.75
2023-03-05T08:43:37.592Z,99191.78
2023-03-05T08:46:05.912Z,99191.81
2023-03-05T08:48:34.388Z,99188.75
2023-03-05T08:51:07.334Z,99172.09
2023-03-05T08:53:35.456Z,99173.97
2023-03-05T08:56:03.594Z,99187.91
2023-03-05T08:58:31.515Z,99173.91
2023-03-05T09:00:59.182Z,99166.22
2023-03-05T09:03:26.932Z,99163.00
2023-03-05T09:05:54.796Z,99156.25
2023-03-05T09:08:22.615Z,99159.69
2023-03-05T09:10:50.336Z,99149.81
2023-03-05T09:13:17.967Z,99147.09
2023-03-05T09:15:45.826Z,99155.91
2023-03-05T09:18:13.951Z,99130.53
2023-03-05T09:20:42.269Z,99128.03
2023-03-05T09:23:10.457Z,99128.75
2023-03-05T09:25:41.401Z,99117.44
2023-03-05T09:28:09.283Z,99122.78
2023-03-05T09:30:37.177Z,99105.97
2023-03-05T09:33:05.167Z,99108.31
2023-03-05T09:35:35.739Z,99096.19
2023-03-05T09:38:04.123Z,99096.69
2023-03-05T09:40:51.495Z,99086.69
2023-03-05T09:43:35.426Z,99067.97
2023-03-05T09:46:06.879Z,99063.03
2023-03-05T09:48:47.651Z,99069.44
2023-03-05T09:51:24.537Z,99060.81
2023-03-05T09:54:03.245Z,99066.00
2023-03-05T09:56:40.154Z,99044.97
2023-03-05T09:59:40.700Z,99057.03
2023-03-05T10:02:32.188Z,99043.41
2023-03-05T10:05:20.498Z,99056.28
2023-03-05T10:07:55.227Z,99051.47
2023-03-05T10:10:37.150Z,99040.97
2023-03-05T10:13:11.843Z,99033.63
2023-03-05T10:15:52.211Z,99039.44
2023-03-05T10:18:52.589Z,99036.41
2023-03-05T10:21:32.454Z,99038.53
2023-03-05T10:24:14.842Z,99035.72
2023-03-05T10:27:20.599Z,99028.22
2023-03-05T10:29:57.858Z,99031.66
2023-03-05T10:32:47.003Z,99033.09
2023-03-05T10:35:14.962Z,99017.66
2023-03-05T10:38:01.003Z,99022.31
2023-03-05T10:40:42.590Z,99006.31
2023-03-05T10:43:31.833Z,99001.28
2023-03-05T10:45:59.552Z,98990.59
2023-03-05T10:48:39.751Z,98992.63
2023-03-05T10:51:23.359Z,98982.28
2023-03-05T10:53:58.353Z,98982.28
2023-03-05T10:56:27.440Z,98977.88
2023-03-05T10:58:54.895Z,98971.38
2023-03-05T11:01:28.250Z,98960.19
2023-03-05T11:04:00.047Z,98962.31
2023-03-05T11:06:35.566Z,98957.09
2023-03-05T11:09:24.140Z,98967.72
2023-03-05T11:12:05.946Z,98952.16
2023-03-05T11:14:34.030Z,98938.91
2023-03-05T11:17:02.670Z,98941.53
2023-03-05T11:19:33.151Z,98924.47
2023-03-05T11:22:20.958Z,98934.38
2023-03-05T11:25:15.494Z,98938.28
2023-03-05T11:27:51.034Z,98937.69
2023-03-05T11:30:27.188Z,98928.72
2023-03-05T11:33:15.695Z,98933.50
2023-03-05T11:35:44.324Z,98931.59
2023-03-05T11:38:24.628Z,98918.09
2023-03-05T11:40:54.238Z,98916.00
2023-03-05T11:43:23.608Z,98922.88
2023-03-05T11:46:02.770Z,98907.16
2023-03-05T11:48:36.227Z,98903.41
2023-03-05T11:51:34.374Z,98907.72
2023-03-05T11:54:06.772Z,98896.19
2023-03-05T11:56:37.239Z,98889.81
2023-03-05T11:59:18.360Z,98901.34
2023-03-05T12:01:53.684Z,98880.59
2023-03-05T12:04:21.208Z,98874.19
2023-03-05T12:06:57.558Z,98880.91
2023-03-05T12:09:40.925Z,98885.91
2023-03-05T12:12:32.226Z,98885.97
2023-03-05T12:15:12.086Z,98884.16
2023-03-05T12:17:46.493Z,98865.66
2023-03-05T12:20:38.873Z,98871.03
2023-03-05T12:23:06.712Z,98861.34
2023-03-05T12:25:45.612Z,98860.63
2023-03-05T12:28:16.346Z,98861.72
2023-03-05T12:30:43.958Z,98866.72
2023-03-05T12:33:30.060Z,98865.88
2023-03-05T12:36:22.545Z,98853.75
2023-03-05T12:38:56.785Z,98848.22
2023-03-05T12:41:25.904Z,98840.66
2023-03-05T12:44:07.486Z,98841.78
2023-03-05T12:46:45.379Z,98820.63
2023-03-05T12:49:23.758Z,98825.19
2023-03-05T12:51:55.477Z,98815.63
2023-03-05T12:54:28.020Z,98820.53
2023-03-05T12:56:57.196Z,98821.38
2023-03-05T12:59:30.628Z,98808.22
2023-03-05T13:02:00.951Z,98802.94
2023-03-05T13:04:30.742Z,98787.31
2023-03-05T13:07:02.319Z,98779.94
2023-03-05T13:09:33.528Z,98779.69
2023-03-05T13:12:01.175Z,98796.22
2023-03-05T13:14:41.409Z,98780.81
2023-03-05T13:17:38.197Z,98757.56
2023-03-05T13:20:27.962Z,98757.78
2023-03-05T13:23:18.384Z,98764.16
2023-03-05T13:25:55.853Z,98771.41
2023-03-05T13:28:24.077Z,98750.97
2023-03-05T13:30:59.032Z,98740.50
2023-03-05T13:33:32.080Z,98732.88
2023-03-05T13:35:59.414Z,98741.56
2023-03-05T13:38:40.723Z,98729.91
2023-03-05T13:41:11.608Z,98728.44
2023-03-05T13:43:44.003Z,98723.53
2023-03-05T13:46:11.468Z,98738.31
2023-03-05T13:48:39.439Z,98711.50
2023-03-05T13:51:09.080Z,98714.97
2023-03-05T13:53:36.939Z,98709.84
2023-03-05T13:56:06.861Z,98706.63
2023-03-05T13:58:52.187Z,98713.38
2023-03-05T14:01:40.783Z,98694.03
2023-03-05T14:04:14.489Z,98698.91
2023-03-05T14:07:06.106Z,98680.06
2023-03-05T14:09:40.090Z,98674.75
2023-03-05T14:12:30.534Z,98663.00
2023-03-05T14:14:59.847Z,98648.44
2023-03-05T14:17:27.569Z,98646.47
2023-03-05T14:20:13.282Z,98642.63
2023-03-05T14:22:42.891Z,98620.44
2023-03-05T14:25:39.958Z,98617.63
2023-03-05T14:28:19.881Z,98606.19
2023-03-05T14:30:48.523Z,98610.19
2023-03-05T14:33:28.652Z,98595.19
2023-03-05T14:35:57.510Z,98576.56
2023-03-05T14:38:27.753Z,98569.78
2023-03-05T14:40:56.410Z,98558.09
2023-03-05T14:43:24.207Z,98556.97
2023-03-05T14:45:52.035Z,98556.81
2023-03-05T14:48:19.840Z,98549.00
2023-03-05T14:50:51.495Z,98551.09
2023-03-05T14:53:23.818Z,98532.16
2023-03-05T14:55:58.289Z,98516.88
2023-03-05T14:58:28.404Z,98508.09
2023-03-05T15:00:56.996Z,98497.53
2023-03-05T15:03:24.577Z,98494.88
2023-03-05T15:05:53.415Z,98493.59
2023-03-05T15:08:23.019Z,98471.50
2023-03-05T15:10:50.994Z,98467.34
2023-03-05T15:13:18.864Z,98480.13
2023-03-05T15:15:46.773Z,98463.31
2023-03-05T15:18:15.950Z,98452.88
2023-03-05T15:20:43.819Z,98447.59
2023-03-05T15:23:12.847Z,98453.03
2023-03-05T15:25:40.589Z,98453.56
2023-03-05T15:28:09.484Z,98454.25
2023-03-05T15:30:41.316Z,98436.03
2023-03-05T15:33:10.826Z,98428.91
2023-03-05T15:35:39.131Z,98425.00
2023-03-05T15:38:06.670Z,98420.53
2023-03-05T15:40:34.488Z,98411.63
2023-03-05T15:43:02.092Z,98417.59
2023-03-05T15:45:31.603Z,98412.31
2023-03-05T15:47:59.842Z,98402.03
2023-03-05T15:50:27.222Z,98396.25
2023-03-05T15:52:55.082Z,98392.94
2023-03-05T15:55:22.500Z,98379.88
2023-03-05T15:57:51.177Z,98362.84
2023-03-05T16:00:27.186Z,98355.41
2023-03-05T16:02:54.658Z,98329.94
2023-03-05T16:05:22.420Z,98333.94
2023-03-05T16:07:51.316Z,98321.34
2023-03-05T16:10:21.493Z,98309.09
2023-03-05T16:12:50.204Z,98288.50
2023-03-05T16:15:18.718Z,98294.63
2023-03-05T16:17:47.776Z,98292.47
2023-03-05T16:20:15.478Z,98285.81
2023-03-05T16:22:43.471Z,98273.72
2023-03-05T16:25:11.044Z,98264.81
2023-03-05T16:27:38.703Z,98270.78
2023-03-05T16:30:07.313Z,98261.34
2023-03-05T16:32:34.939Z,98254.38
2023-03-05T16:35:02.672Z,98253.00
2023-03-05T16:37:30.037Z,98221.38
2023-03-05T16:40:00.976Z,98221.59
2023-03-05T16:42:28.636Z,98208.69
2023-03-05T16:44:56.617Z,98207.69
2023-03-05T16:47:24.133Z,98204.88
2023-03-05T16:49:51.517Z,98190.66
2023-03-05T16:52:20.831Z,98180.06
2023-03-05T16:54:48.399Z,98161.34
2023-03-05T16:57:16.147Z,98154.50
2023-03-05T16:59:43.858Z,98158.09
2023-03-05T17:02:12.980Z,98153.78
2023-03-05T17:04:40.783Z,98138.72
2023-03-05T17:07:08.503Z,98119.94
2023-03-05T17:09:36.226Z,98120.09
2023-03-05T17:12:05.149Z,98123.72
2023-03-05T17:14:32.740Z,98112.00
2023-03-05T17:17:01.061Z,98112.56
2023-03-05T17:19:28.652Z,98097.22
2023-03-05T17:21:55.897Z,98104.03
2023-03-05T17:24:23.484Z,98088.97
2023-03-05T17:26:51.132Z,98086.88
2023-03-05T17:29:19.366Z,98079.28
2023-03-05T17:31:46.897Z,98063.09
2023-03-05T17:34:15.710Z,98068.59
2023-03-05T17:36:45.296Z,98052.53
2023-03-05T17:39:13.587Z,98050.72
2023-03-05T17:41:41.347Z,98033.53
2023-03-05T17:44:09.065Z,98032.69
2023-03-05T17:46:36.699Z,98025.75
2023-03-05T17:49:04.051Z,98028.94
2023-03-05T17:51:31.366Z,98009.03
2023-03-05T17:53:59.451Z,98001.28
2023-03-05T17:56:26.981Z,97992.50
2023-03-05T17:58:54.592Z,97985.03
2023-03-05T18:01:23.844Z,97966.34
2023-03-05T18:03:51.508Z,97956.75
2023-03-05T18:06:19.130Z,97959.56
2023-03-05T18:08:46.909Z,97947.31
2023-03-05T18:11:14.473Z,97927.63
2023-03-05T18:13:43.093Z,97933.44
2023-03-05T18:16:10.881Z,97932.75
2023-03-05T18:18:38.289Z,97917.19
2023-03-05T18:21:05.952Z,97912.09
2023-03-05T18:23:33.506Z,97904.00
2023-03-05T18:26:00.860Z,97895.22
2023-03-05T18:28:28.873Z,97911.44
2023-03-05T18:30:56.254Z,97890.13
2023-03-05T18:33:24.797Z,97893.78
2023-03-05T18:35:52.849Z,97882.34
2023-03-05T18:38:25.226Z,97881.34
2023-03-05T18:40:53.154Z,97877.06
2023-03-05T18:43:21.142Z,97880.69
2023-03-05T18:45:49.491Z,97876.88
2023-03-05T18:48:17.576Z,97866.13
2023-03-05T18:50:45.218Z,97882.84
2023-03-05T18:53:13.588Z,97873.41
2023-03-05T18:55:45.088Z,97861.66
2023-03-05T18:58:15.509Z,97852.88
2023-03-05T19:00:44.939Z,97835.88
2023-03-05T19:03:12.671Z,97841.31
2023-03-05T19:05:40.674Z,97836.97
2023-03-05T19:08:08.316Z,97842.09
2023-03-05T19:10:35.788Z,97855.16
2023-03-05T19:13:39.247Z,97849.56
2023-03-05T19:16:14.645Z,97830.84
2023-03-05T19:18:57.013Z,97840.63
2023-03-05T19:21:24.678Z,97828.56
2023-03-05T19:23:51.924Z,97825.28
2023-03-05T19:26:19.080Z,97824.59
2023-03-05T19:28:46.587Z,97840.97
2023-03-05T19:31:17.694Z,97823.59
2023-03-05T19:33:45.017Z,97821.94
2023-03-05T19:36:12.468Z,97818.78
2023-03-05T19:38:40.362Z,97810.53
2023-03-05T19:41:08.653Z,97814.47
2023-03-05T19:43:36.169Z,97808.19
2023-03-05T19:46:04.722Z,97805.53
2023-03-05T19:48:32.495Z,97794.97
2023-03-05T19:51:00.679Z,97784.22
2023-03-05T19:53:28.149Z,97775.47
2023-03-05T19:55:56.398Z,97758.09
2023-03-05T19:58:23.994Z,97751.28
2023-03-05T20:00:51.770Z,97750.81
2023-03-05T20:03:18.965Z,97736.09
2023-03-05T20:05:46.474Z,97737.22
2023-03-05T20:08:13.865Z,97725.81
2023-03-05T20:10:41.077Z,97723.50
2023-03-05T20:13:08.650Z,97720.69
2023-03-05T20:15:36.118Z,97716.69
2023-03-05T20:18:03.852Z,97713.22
2023-03-05T20:20:31.491Z,97699.16
2023-03-05T20:22:58.875Z,97712.09
2023-03-05T20:25:26.292Z,97688.09
2023-03-05T20:27:53.862Z,97682.19
2023-03-05T20:30:21.588Z,97678.38
2023-03-05T20:32:49.274Z,97678.25
2023-03-05T20:35:17.677Z,97678.22
2023-03-05T20:38:05.294Z,97659.69
2023-03-05T20:40:32.886Z,97645.97
2023-03-05T20:43:00.249Z,97637.53
2023-03-05T20:45:28.176Z,97641.16
2023-03-05T20:47:55.421Z,97612.09
2023-03-05T20:50:23.462Z,97625.69
2023-03-05T20:52:50.721Z,97614.41
2023-03-05T20:55:18.041Z,97588.59
2023-03-05T20:57:46.357Z,97583.53
2023-03-05T21:00:14.398Z,97590.47
2023-03-05T21:02:41.751Z,97578.53
2023-03-05T21:05:09.388Z,97565.28
2023-03-05T21:07:36.918Z,97562.75
2023-03-05T21:10:04.640Z,97560.66
2023-03-05T21:12:32.995Z,97553.66
2023-03-05T21:15:01.151Z,97543.72
2023-03-05T21:17:28.605Z,97535.53
2023-03-05T21:19:56.423Z,97519.94
2023-03-05T21:22:24.061Z,97522.34
2023-03-05T21:25:15.584Z,97523.81
2023-03-05T21:27:43.509Z,97517.59
2023-03-05T21:30:11.523Z,97534.13
2023-03-05T21:32:39.173Z,97515.06
2023-03-05T21:35:07.117Z,97522.28
2023-03-05T21:37:36.595Z,97496.88
2023-03-05T21:40:04.888Z,97505.53
2023-03-05T21:42:32.642Z,97499.69
2023-03-05T21:44:59.857Z,97498.03
2023-03-05T21:47:27.167Z,97488.81
2023-03-05T21:49:54.511Z,97470.28
2023-03-05T21:52:22.603Z,97469.22
2023-03-05T21:54:49.906Z,97451.50
2023-03-05T21:57:17.624Z,97463.28
2023-03-05T21:59:45.277Z,97457.81
2023-03-05T22:02:13.355Z,97455.91
2023-03-05T22:04:40.800Z,97446.13
2023-03-05T22:07:08.297Z,97438.50
2023-03-05T22:09:35.959Z,97433.00
2023-03-05T22:12:04.534Z,97438.59
2023-03-05T22:14:32.436Z,97421.69
2023-03-05T22:17:01.904Z,97423.59
2023-03-05T22:19:30.234Z,97424.44
2023-03-05T22:21:57.992Z,97435.38
2023-03-05T22:24:25.732Z,97441.16
2023-03-05T22:26:53.259Z,97420.31
2023-03-05T22:29:21.235Z,97425.16
2023-03-05T22:31:48.542Z,97437.03
2023-03-05T22:34:16.029Z,97427.44
2023-03-05T22:36:43.389Z,97422.44
2023-03-05T22:39:10.718Z,97414.94
2023-03-05T22:41:40.972Z,97416.41
2023-03-05T22:44:08.842Z,97419.63
2023-03-05T22:46:36.735Z,97419.72
2023-03-05T22:49:03.960Z,97411.13
2023-03-05T22:51:31.646Z,97413.22
2023-03-05T22:53:59.105Z,97405.91
2023-03-05T22:56:26.359Z,97409.84
2023-03-05T22:58:54.199Z,97421.53
2023-03-05T23:01:24.228Z,97414.16
2023-03-05T23:03:58.353Z,97409.75
2023-03-05T23:06:26.186Z,97411.38
2023-03-05T23:08:53.614Z,97412.22
2023-03-05T23:11:21.058Z,97387.91
2023-03-05T23:13:48.615Z,97381.78
2023-03-05T23:16:16.456Z,97378.13
2023-03-05T23:18:43.870Z,97384.06
2023-03-05T23:21:11.288Z,97365.69
2023-03-05T23:23:39.053Z,97395.41
2023-03-05T23:26:06.386Z,97395.22
2023-03-05T23:28:33.834Z,97393.94
2023-03-05T23:31:02.708Z,97388.53
2023-03-05T23:33:30.038Z,97384.88
2023-03-05T23:35:59.041Z,97398.25
2023-03-05T23:38:27.761Z,97412.59
2023-03-05T23:40:57.622Z,97413.97
2023-03-05T23:43:26.746Z,97414.34
2023-03-05T23:45:54.917Z,97434.78
2023-03-05T23:48:23.168Z,97439.84
2023-03-05T23:50:50.881Z,97450.44
2023-03-05T23:53:23.259Z,97448.78
2023-03-05T23:55:50.924Z,97436.41
2023-03-05T23:58:20.321Z,97449.28
